Funchal, Portugal

18:41 WET le 19 février 2017 (GMT +0000)
Madeira | | Change Station

Alt. 180 ft 32.68 °N, 16.77 °W | Updated 11 minutes ago

Light Drizzle
Bruine
61 ° F
Paraît 61 ° F
N
20
Vent Variable Vent de NNE
Gusts 33 mph

Aujourd'hui
Haut(e) -- | Bas -- ° F
--% Risque de précip.
Hier
Haut(e) -- | Bas -- ° F
Precip. -- pouce
Pression 30.18 pouce
Visibilité 6.2 Miles terrestres
Nuages Nuages épars 1300 ft
Nuages épars 2800 ft
Point de rosée 54 ° F
Humidité 77%
Précipitations 0.00 pouce
Profondeur de la couche neigeuse Non disponible.
7:45 AM 6:56 PM
Dernier quartier, 41% visible
METAR LPMA 191830Z 02017G29KT 350V060 9999 -DZ SCT013 SCT028 16/12 Q1022
Pression 30.18 pouce
Visibilité 6.2 Miles terrestres
Nuages Nuages épars 1300 ft
Nuages épars 2800 ft
Point de rosée 54 ° F
Humidité 77%
Précipitations 0.00 pouce
Profondeur de la couche neigeuse Non disponible.
7:45 AM 6:56 PM
Dernier quartier, 41% visible
METAR LPMA 191830Z 02017G29KT 350V060 9999 -DZ SCT013 SCT028 16/12 Q1022

Get Your Daily Forecast Email!

Thanks for signing up!

Be on the lookout for a verification email in your inbox.

You'll start receiving the daily forecast at 8 AM.

×

10-Day Weather Forecast

×

Almanac

Astronomie

Feb. 19, 2017 Lever Coucher
Temps réel
Crépuscule civil
Crépuscule nautique
Crépuscule astronomique
Lune
Durée de lumière visible
Longueur du jour
Tomorrow will be .
, % of the Moon is Illuminated

Extrêmes aujourd'hui

Country Highs Country Lows

Community

WunderPhotos

Upload Photos

1,962,540 Photos téléchargées !

WunderBlog® & News

Nearby

Qualité de l'air

  Qualité de l'air Indice de la qualité de l'air Polluant
Not available.

Épaisseur de neige

Station Depth Altitude

Activité sismique

Ville Distance Mag. Time & Date
Minimum magnitude displayed is 2.5.

Températures des eaux côtières

Lieu Température

Stations

Stations météo à proximité

Emplacement de la station Température Refroidissement éolien Point de rosée Humidité Vent Precip. Alt. Mise à jour Type